createdAt,value
2022-11-28T00:01:33.288Z,8.85
2022-11-28T00:03:59.934Z,8.25
2022-11-28T00:06:27.541Z,8.20
2022-11-28T00:08:55.590Z,9.68
2022-11-28T00:11:22.186Z,8.25
2022-11-28T00:13:49.010Z,8.27
2022-11-28T00:16:22.072Z,8.25
2022-11-28T00:18:53.841Z,9.63
2022-11-28T00:21:20.784Z,7.63
2022-11-28T00:23:48.553Z,8.57
2022-11-28T00:26:25.421Z,9.40
2022-11-28T00:28:52.338Z,8.45
2022-11-28T00:31:21.778Z,9.27
2022-11-28T00:33:48.858Z,7.38
2022-11-28T00:36:15.773Z,8.13
2022-11-28T00:38:43.225Z,7.10
2022-11-28T00:41:21.461Z,8.73
2022-11-28T00:43:50.086Z,8.60
2022-11-28T00:46:17.665Z,7.68
2022-11-28T00:48:44.629Z,8.15
2022-11-28T00:51:12.747Z,7.55
2022-11-28T00:53:41.987Z,8.43
2022-11-28T00:56:10.993Z,8.15
2022-11-28T00:58:38.757Z,10.40
2022-11-28T01:01:10.982Z,9.45
2022-11-28T01:03:39.100Z,8.00
2022-11-28T01:06:06.835Z,9.30
2022-11-28T01:08:33.924Z,9.63
2022-11-28T01:11:00.915Z,9.75
2022-11-28T01:13:27.757Z,10.10
2022-11-28T01:15:54.482Z,11.70
2022-11-28T01:18:21.124Z,11.07
2022-11-28T01:20:47.705Z,8.85
2022-11-28T01:23:14.299Z,8.95
2022-11-28T01:25:40.880Z,9.70
2022-11-28T01:28:07.451Z,11.07
2022-11-28T01:30:34.485Z,12.63
2022-11-28T01:33:01.083Z,11.38
2022-11-28T01:35:27.828Z,14.45
2022-11-28T01:37:54.654Z,10.30
2022-11-28T01:40:21.419Z,10.77
2022-11-28T01:42:48.038Z,9.88
2022-11-28T01:45:16.909Z,11.63
2022-11-28T01:47:44.708Z,14.18
2022-11-28T01:50:12.834Z,12.73
2022-11-28T01:52:43.074Z,10.93
2022-11-28T01:55:13.032Z,11.60
2022-11-28T01:57:40.139Z,11.57
2022-11-28T02:00:07.853Z,10.82
2022-11-28T02:02:42.394Z,10.85
2022-11-28T02:05:09.609Z,11.30
2022-11-28T02:07:37.643Z,10.93
2022-11-28T02:10:08.042Z,11.80
2022-11-28T02:12:55.649Z,10.02
2022-11-28T02:15:44.116Z,14.60
2022-11-28T02:18:13.425Z,16.00
2022-11-28T02:21:08.044Z,18.85
2022-11-28T02:24:00.742Z,17.70
2022-11-28T02:27:12.520Z,17.17
2022-11-28T02:30:01.921Z,18.27
2022-11-28T02:32:47.363Z,16.02
2022-11-28T02:35:45.041Z,13.45
2022-11-28T02:38:14.262Z,14.90
2022-11-28T02:40:58.326Z,12.13
2022-11-28T02:43:37.062Z,13.15
2022-11-28T02:46:30.197Z,12.57
2022-11-28T02:49:11.894Z,13.32
2022-11-28T02:51:50.576Z,15.15
2022-11-28T02:54:18.581Z,11.43
2022-11-28T02:56:49.737Z,12.73
2022-11-28T02:59:37.162Z,13.32
2022-11-28T03:02:15.403Z,12.32
2022-11-28T03:05:13.174Z,13.40
2022-11-28T03:08:06.169Z,14.05
2022-11-28T03:11:02.872Z,11.63
2022-11-28T03:13:53.193Z,11.45
2022-11-28T03:16:43.952Z,11.25
2022-11-28T03:19:27.501Z,13.82
2022-11-28T03:24:47.248Z,13.45
2022-11-28T03:27:21.187Z,15.18
2022-11-28T03:29:52.998Z,12.18
2022-11-28T03:32:33.550Z,12.75
2022-11-28T03:35:06.511Z,15.95
2022-11-28T03:37:37.664Z,18.75
2022-11-28T03:40:11.075Z,18.10
2022-11-28T03:42:49.089Z,17.80
2022-11-28T03:45:18.604Z,17.38
2022-11-28T03:47:49.874Z,17.17
2022-11-28T03:50:35.976Z,14.27
2022-11-28T03:53:16.530Z,19.35
2022-11-28T03:55:52.196Z,17.27
2022-11-28T03:58:32.673Z,18.90
2022-11-28T04:01:34.438Z,14.20
2022-11-28T04:04:14.305Z,16.85
2022-11-28T04:07:02.169Z,15.23
2022-11-28T04:09:49.629Z,16.52
2022-11-28T04:12:36.814Z,15.35
2022-11-28T04:15:22.635Z,15.40
2022-11-28T04:18:07.715Z,15.07
2022-11-28T04:20:40.814Z,15.40
2022-11-28T04:25:42.423Z,13.27
2022-11-28T04:28:15.723Z,13.32
2022-11-28T04:30:46.286Z,14.02
2022-11-28T04:33:16.225Z,12.70
2022-11-28T04:35:50.061Z,13.00
2022-11-28T04:38:17.707Z,16.55
2022-11-28T04:40:49.692Z,13.98
2022-11-28T04:43:33.181Z,14.82
2022-11-28T04:46:05.930Z,13.27
2022-11-28T04:48:34.613Z,12.85
2022-11-28T04:51:07.390Z,13.77
2022-11-28T04:54:15.707Z,12.60
2022-11-28T04:57:19.608Z,22.10
2022-11-28T05:02:16.322Z,17.45
2022-11-28T05:04:44.684Z,15.60
2022-11-28T05:07:11.914Z,15.55
2022-11-28T05:09:38.649Z,15.48
2022-11-28T05:12:06.023Z,13.07
2022-11-28T05:14:32.680Z,13.50
2022-11-28T05:16:59.266Z,12.95
2022-11-28T05:19:25.888Z,13.63
2022-11-28T05:21:53.583Z,14.80
2022-11-28T05:24:22.359Z,18.23
2022-11-28T05:26:49.362Z,16.13
2022-11-28T05:29:16.198Z,15.35
2022-11-28T05:31:43.035Z,18.10
2022-11-28T05:34:09.754Z,15.50
2022-11-28T05:36:36.551Z,17.08
2022-11-28T05:39:03.205Z,16.25
2022-11-28T05:41:31.625Z,16.95
2022-11-28T05:43:59.409Z,17.10
2022-11-28T05:46:27.014Z,17.17
2022-11-28T05:48:53.627Z,17.92
2022-11-28T05:51:20.309Z,18.23
2022-11-28T05:53:46.977Z,18.23
2022-11-28T05:56:17.595Z,13.73
2022-11-28T05:58:44.349Z,16.10
2022-11-28T06:01:19.132Z,16.42
2022-11-28T06:03:47.438Z,19.38
2022-11-28T06:06:17.669Z,22.13
2022-11-28T06:08:45.594Z,20.75
2022-11-28T06:11:14.610Z,20.55
2022-11-28T06:13:45.096Z,20.30
2022-11-28T06:16:17.253Z,26.67
2022-11-28T06:18:44.183Z,22.97
2022-11-28T06:21:12.449Z,24.60
2022-11-28T06:23:40.305Z,23.23
2022-11-28T06:26:09.133Z,22.92
2022-11-28T06:28:36.201Z,22.67
2022-11-28T06:31:03.113Z,25.00
2022-11-28T06:33:29.911Z,24.45
2022-11-28T06:36:04.581Z,23.48
2022-11-28T06:38:32.050Z,21.50
2022-11-28T06:41:04.241Z,20.13
2022-11-28T06:43:31.217Z,20.50
2022-11-28T06:45:58.105Z,21.27
2022-11-28T06:48:25.428Z,18.17
2022-11-28T06:50:52.750Z,19.65
2022-11-28T06:53:19.764Z,20.00
2022-11-28T06:55:46.870Z,17.15
2022-11-28T06:58:13.608Z,18.23
2022-11-28T07:00:40.248Z,18.85
2022-11-28T07:03:06.861Z,18.17
2022-11-28T07:05:33.442Z,17.35
2022-11-28T07:08:00.763Z,19.67
2022-11-28T07:10:28.269Z,16.83
2022-11-28T07:13:04.924Z,17.92
2022-11-28T07:15:32.113Z,19.98
2022-11-28T07:17:58.701Z,17.05
2022-11-28T07:20:25.292Z,17.10
2022-11-28T07:22:51.881Z,19.38
2022-11-28T07:25:18.573Z,17.33
2022-11-28T07:27:45.242Z,20.92
2022-11-28T07:30:12.075Z,25.10
2022-11-28T07:32:41.714Z,20.08
2022-11-28T07:35:09.081Z,24.10
2022-11-28T07:37:36.219Z,23.80
2022-11-28T07:40:03.956Z,24.13
2022-11-28T07:42:30.597Z,21.08
2022-11-28T07:44:57.221Z,28.10
2022-11-28T07:47:23.850Z,25.27
2022-11-28T07:49:50.437Z,24.48
2022-11-28T07:52:17.036Z,20.55
2022-11-28T07:54:43.701Z,23.13
2022-11-28T07:57:11.771Z,29.92
2022-11-28T07:59:39.531Z,16.40
2022-11-28T08:02:06.786Z,18.35
2022-11-28T08:04:33.497Z,15.30
2022-11-28T08:07:00.129Z,15.55
2022-11-28T08:09:26.762Z,16.67
2022-11-28T08:11:53.346Z,14.70
2022-11-28T08:14:20.429Z,12.70
2022-11-28T08:16:47.188Z,12.25
2022-11-28T08:19:13.893Z,14.02
2022-11-28T08:21:40.680Z,10.70
2022-11-28T08:24:08.230Z,11.98
2022-11-28T08:26:34.986Z,11.52
2022-11-28T08:29:03.643Z,11.35
2022-11-28T08:31:36.018Z,11.75
2022-11-28T08:34:05.988Z,10.40
2022-11-28T08:36:32.613Z,9.20
2022-11-28T08:39:22.920Z,10.45
2022-11-28T08:41:47.649Z,10.70
2022-11-28T08:44:14.235Z,10.60
2022-11-28T08:46:41.130Z,11.93
2022-11-28T08:49:07.697Z,9.77
2022-11-28T08:51:34.333Z,10.32
2022-11-28T08:54:00.914Z,11.30
2022-11-28T08:56:28.079Z,12.82
2022-11-28T08:58:55.199Z,12.10
2022-11-28T09:01:24.441Z,10.95
2022-11-28T09:03:52.713Z,12.10
2022-11-28T09:06:21.040Z,12.73
2022-11-28T09:08:48.305Z,15.32
2022-11-28T09:11:17.681Z,15.82
2022-11-28T09:13:45.107Z,18.52
2022-11-28T09:16:12.539Z,15.98
2022-11-28T09:18:39.289Z,16.02
2022-11-28T09:21:11.578Z,14.48
2022-11-28T09:23:41.036Z,14.17
2022-11-28T09:26:18.763Z,14.50
2022-11-28T09:28:45.585Z,13.23
2022-11-28T09:31:13.896Z,14.95
2022-11-28T09:33:40.947Z,21.58
2022-11-28T09:36:09.934Z,23.25
2022-11-28T09:38:37.016Z,30.60
2022-11-28T09:41:20.214Z,29.58
2022-11-28T09:43:53.450Z,34.95
2022-11-28T09:46:28.073Z,35.03
2022-11-28T09:48:59.694Z,34.65
2022-11-28T09:51:34.612Z,43.38
2022-11-28T09:54:13.350Z,41.03
2022-11-28T09:56:40.940Z,48.33
2022-11-28T09:59:30.007Z,42.85
2022-11-28T10:02:12.209Z,41.15
2022-11-28T10:04:45.621Z,42.30
2022-11-28T10:07:50.965Z,36.97
2022-11-28T10:10:49.529Z,39.80
2022-11-28T10:13:53.552Z,35.65
2022-11-28T10:16:35.317Z,35.08
2022-11-28T10:19:25.568Z,36.17
2022-11-28T10:22:00.197Z,31.23
2022-11-28T10:24:37.420Z,34.28
2022-11-28T10:27:05.732Z,27.98
2022-11-28T10:29:49.935Z,32.05
2022-11-28T10:32:36.541Z,29.33
2022-11-28T10:35:15.354Z,28.60
2022-11-28T10:37:43.117Z,30.92
2022-11-28T10:40:29.517Z,27.15
2022-11-28T10:43:16.290Z,32.78
2022-11-28T10:46:27.916Z,25.30
2022-11-28T10:48:57.200Z,28.05
2022-11-28T10:51:42.346Z,30.25
2022-11-28T10:54:30.277Z,30.33
2022-11-28T10:57:15.229Z,28.35
2022-11-28T10:59:56.678Z,32.13
2022-11-28T11:02:48.178Z,33.92
2022-11-28T11:05:20.952Z,26.77
2022-11-28T11:08:23.782Z,26.52
2022-11-28T11:10:52.117Z,27.88
2022-11-28T11:13:24.333Z,25.92
2022-11-28T11:16:05.248Z,24.17
2022-11-28T11:18:35.503Z,22.33
2022-11-28T11:21:24.750Z,23.42
2022-11-28T11:24:18.328Z,27.45
2022-11-28T11:26:49.653Z,28.27
2022-11-28T11:29:29.152Z,26.42
2022-11-28T11:31:58.322Z,25.23
2022-11-28T11:34:25.053Z,23.75
2022-11-28T11:36:51.729Z,25.00
2022-11-28T11:39:25.706Z,24.15
2022-11-28T11:42:12.332Z,26.77
2022-11-28T11:44:39.233Z,24.98
2022-11-28T11:47:08.396Z,24.65
2022-11-28T11:49:34.973Z,24.70
2022-11-28T11:52:05.878Z,25.95
2022-11-28T11:54:32.653Z,26.55
2022-11-28T11:57:25.095Z,28.35
2022-11-28T11:59:53.850Z,27.42
2022-11-28T12:02:38.175Z,23.90
2022-11-28T12:05:46.422Z,22.52
2022-11-28T12:08:38.117Z,23.08
2022-11-28T12:11:25.772Z,24.33
2022-11-28T12:13:53.486Z,25.23
2022-11-28T12:17:25.567Z,27.08
2022-11-28T12:20:06.279Z,26.63
2022-11-28T12:23:05.074Z,29.85
2022-11-28T12:26:01.642Z,25.52
2022-11-28T12:28:34.325Z,31.70
2022-11-28T12:31:29.590Z,39.20
2022-11-28T12:34:14.348Z,37.13
2022-11-28T12:36:59.739Z,39.80
2022-11-28T12:39:49.362Z,41.83
2022-11-28T12:42:34.092Z,42.53
2022-11-28T12:45:21.858Z,42.78
2022-11-28T12:48:05.597Z,40.63
2022-11-28T12:50:36.893Z,43.47
2022-11-28T12:53:45.748Z,42.85
2022-11-28T12:56:30.220Z,41.05
2022-11-28T12:59:19.116Z,42.03
2022-11-28T13:01:45.667Z,41.03
2022-11-28T13:04:28.956Z,42.92
2022-11-28T13:07:22.263Z,40.63
2022-11-28T13:10:09.195Z,35.50
2022-11-28T13:12:59.176Z,40.05
2022-11-28T13:15:37.960Z,40.50
2022-11-28T13:18:29.495Z,35.10
2022-11-28T13:20:59.455Z,40.95
2022-11-28T13:24:06.860Z,35.55
2022-11-28T13:26:44.101Z,39.05
2022-11-28T13:29:13.703Z,36.70
2022-11-28T13:31:58.788Z,37.58
2022-11-28T13:34:30.082Z,31.23
2022-11-28T13:40:06.498Z,34.38
2022-11-28T13:43:07.236Z,32.95
2022-11-28T13:45:39.161Z,33.97
2022-11-28T13:48:57.555Z,34.75
2022-11-28T13:54:17.154Z,32.85
2022-11-28T13:56:46.097Z,30.77
2022-11-28T13:59:19.836Z,31.95
2022-11-28T14:01:51.178Z,30.05
2022-11-28T14:04:19.294Z,30.88
2022-11-28T14:07:03.751Z,33.92
2022-11-28T14:09:36.052Z,25.55
2022-11-28T14:12:11.599Z,27.10
2022-11-28T14:15:00.036Z,29.60
2022-11-28T14:17:29.583Z,30.20
2022-11-28T14:20:01.821Z,31.30
2022-11-28T14:22:34.456Z,26.73
2022-11-28T14:25:31.729Z,28.92
2022-11-28T14:28:02.358Z,26.73
2022-11-28T14:30:34.449Z,24.63
2022-11-28T14:33:06.298Z,25.35
2022-11-28T14:35:50.993Z,27.33
2022-11-28T14:38:35.697Z,23.20
2022-11-28T14:41:03.782Z,29.42
2022-11-28T14:43:35.806Z,24.50
2022-11-28T14:46:33.582Z,24.40
2022-11-28T14:49:00.333Z,29.42
2022-11-28T14:51:48.391Z,27.20
2022-11-28T14:54:23.909Z,26.73
2022-11-28T14:56:56.669Z,26.80
2022-11-28T14:59:34.162Z,28.00
2022-11-28T15:02:08.950Z,26.00
2022-11-28T15:04:44.225Z,27.42
2022-11-28T15:07:35.389Z,26.92
2022-11-28T15:10:32.217Z,26.15
2022-11-28T15:13:10.900Z,28.27
2022-11-28T15:15:47.425Z,28.30
2022-11-28T15:18:14.792Z,26.48
2022-11-28T15:20:50.900Z,24.60
2022-11-28T15:23:24.645Z,28.17
2022-11-28T15:25:55.826Z,27.45
2022-11-28T15:28:25.440Z,28.23
2022-11-28T15:30:53.224Z,22.48
2022-11-28T15:33:21.058Z,24.75
2022-11-28T15:35:58.413Z,26.92
2022-11-28T15:38:26.146Z,24.30
2022-11-28T15:40:54.767Z,27.90
2022-11-28T15:43:22.660Z,24.42
2022-11-28T15:45:54.435Z,25.27
2022-11-28T15:48:40.043Z,25.70
2022-11-28T15:51:07.588Z,24.80
2022-11-28T15:53:42.416Z,30.55
2022-11-28T15:56:15.223Z,29.60
2022-11-28T15:58:44.285Z,24.08
2022-11-28T16:01:22.446Z,31.27
2022-11-28T16:04:07.674Z,25.92
2022-11-28T16:06:37.077Z,27.80
2022-11-28T16:09:05.110Z,26.08
2022-11-28T16:11:34.383Z,25.63
2022-11-28T16:14:08.723Z,29.92
2022-11-28T16:16:37.087Z,27.25
2022-11-28T16:19:15.107Z,28.50
2022-11-28T16:21:51.236Z,26.63
2022-11-28T16:24:25.957Z,32.90
2022-11-28T16:26:59.882Z,28.60
2022-11-28T16:29:42.683Z,35.55
2022-11-28T16:32:39.260Z,27.35
2022-11-28T16:35:11.544Z,29.52
2022-11-28T16:37:39.337Z,32.63
2022-11-28T16:40:15.543Z,38.42
2022-11-28T16:42:42.287Z,39.60
2022-11-28T16:45:18.057Z,36.53
2022-11-28T16:47:45.758Z,33.05
2022-11-28T16:50:20.756Z,30.08
2022-11-28T16:52:51.476Z,23.85
2022-11-28T16:55:27.222Z,25.77
2022-11-28T16:58:15.184Z,22.20
2022-11-28T17:00:50.424Z,23.42
2022-11-28T17:03:46.682Z,27.95
2022-11-28T17:06:23.617Z,29.40
2022-11-28T17:08:50.617Z,23.23
2022-11-28T17:11:21.197Z,26.38
2022-11-28T17:13:47.942Z,27.55
2022-11-28T17:16:21.122Z,22.50
2022-11-28T17:21:16.544Z,25.27
2022-11-28T17:23:43.296Z,25.25
2022-11-28T17:26:10.748Z,24.75
2022-11-28T17:28:37.646Z,25.70
2022-11-28T17:31:04.302Z,25.40
2022-11-28T17:33:30.922Z,27.35
2022-11-28T17:35:59.588Z,26.90
2022-11-28T17:38:26.339Z,30.35
2022-11-28T17:40:53.440Z,28.05
2022-11-28T17:43:21.791Z,26.33
2022-11-28T17:45:50.662Z,28.40
2022-11-28T17:48:18.045Z,27.88
2022-11-28T17:50:47.708Z,26.98
2022-11-28T17:53:19.425Z,27.13
2022-11-28T17:55:48.214Z,24.25
2022-11-28T17:58:18.317Z,27.25
2022-11-28T18:00:45.246Z,23.95
2022-11-28T18:03:12.633Z,25.02
2022-11-28T18:05:42.713Z,27.58
2022-11-28T18:08:09.422Z,22.67
2022-11-28T18:10:36.343Z,22.20
2022-11-28T18:13:03.220Z,25.67
2022-11-28T18:15:29.901Z,24.67
2022-11-28T18:17:56.520Z,22.67
2022-11-28T18:20:23.139Z,20.48
2022-11-28T18:22:49.801Z,22.38
2022-11-28T18:25:16.441Z,23.20
2022-11-28T18:27:43.113Z,19.00
2022-11-28T18:30:10.220Z,21.42
2022-11-28T18:32:36.789Z,19.35
2022-11-28T18:35:03.560Z,20.88
2022-11-28T18:37:30.534Z,20.55
2022-11-28T18:39:57.108Z,22.10
2022-11-28T18:42:24.039Z,19.02
2022-11-28T18:44:50.620Z,20.20
2022-11-28T18:47:17.245Z,18.40
2022-11-28T18:49:44.354Z,19.35
2022-11-28T18:52:11.149Z,20.30
2022-11-28T18:54:38.581Z,18.85
2022-11-28T18:57:08.732Z,21.15
2022-11-28T18:59:35.460Z,17.13
2022-11-28T19:02:02.166Z,19.75
2022-11-28T19:04:28.754Z,20.80
2022-11-28T19:06:55.354Z,20.55
2022-11-28T19:09:22.541Z,21.65
2022-11-28T19:11:49.126Z,18.30
2022-11-28T19:14:17.909Z,18.75
2022-11-28T19:16:45.710Z,19.95
2022-11-28T19:19:12.397Z,19.77
2022-11-28T19:21:39.074Z,19.65
2022-11-28T19:24:08.145Z,20.25
2022-11-28T19:26:35.513Z,20.75
2022-11-28T19:29:02.762Z,18.70
2022-11-28T19:31:32.793Z,21.27
2022-11-28T19:34:17.831Z,21.80
2022-11-28T19:36:47.512Z,23.48
2022-11-28T19:39:23.239Z,21.88
2022-11-28T19:41:51.480Z,24.75
2022-11-28T19:44:18.209Z,21.23
2022-11-28T19:46:44.881Z,22.77
2022-11-28T19:49:18.877Z,20.70
2022-11-28T19:51:46.328Z,21.88
2022-11-28T19:54:13.007Z,25.25
2022-11-28T19:56:39.757Z,20.02
2022-11-28T19:59:06.462Z,24.13
2022-11-28T20:01:33.126Z,19.38
2022-11-28T20:03:59.891Z,19.40
2022-11-28T20:06:29.515Z,18.15
2022-11-28T20:09:00.121Z,18.98
2022-11-28T20:11:30.420Z,19.90
2022-11-28T20:14:06.590Z,20.42
2022-11-28T20:16:35.684Z,24.65
2022-11-28T20:19:03.869Z,24.58
2022-11-28T20:21:30.631Z,21.50
2022-11-28T20:23:59.767Z,22.02
2022-11-28T20:26:27.068Z,19.45
2022-11-28T20:28:55.711Z,21.70
2022-11-28T20:31:35.794Z,24.10
2022-11-28T20:34:03.582Z,20.35
2022-11-28T20:36:32.045Z,21.77
2022-11-28T20:38:59.394Z,19.92
2022-11-28T20:41:27.328Z,18.00
2022-11-28T20:43:54.202Z,22.45
2022-11-28T20:46:34.137Z,20.02
2022-11-28T20:49:03.973Z,21.67
2022-11-28T20:51:32.143Z,20.23
2022-11-28T20:54:00.030Z,20.73
2022-11-28T20:56:29.756Z,21.65
2022-11-28T20:58:59.391Z,22.98
2022-11-28T21:01:28.012Z,23.08
2022-11-28T21:03:54.622Z,21.25
2022-11-28T21:06:21.714Z,19.85
2022-11-28T21:08:48.346Z,23.08
2022-11-28T21:11:43.384Z,21.23
2022-11-28T21:14:06.026Z,19.42
2022-11-28T21:16:33.943Z,20.98
2022-11-28T21:19:07.607Z,17.50
2022-11-28T21:21:35.393Z,19.58
2022-11-28T21:24:05.137Z,21.35
2022-11-28T21:26:37.569Z,17.92
2022-11-28T21:29:09.207Z,20.05
2022-11-28T21:31:41.297Z,18.63
2022-11-28T21:34:07.974Z,21.65
2022-11-28T21:36:35.049Z,19.63
2022-11-28T21:39:01.845Z,20.35
2022-11-28T21:41:31.328Z,22.00
2022-11-28T21:43:58.934Z,20.88
2022-11-28T21:46:26.355Z,23.58
2022-11-28T21:48:53.604Z,20.52
2022-11-28T21:51:23.027Z,18.15
2022-11-28T21:53:50.350Z,19.02
2022-11-28T21:56:17.323Z,19.65
2022-11-28T21:58:44.348Z,20.23
2022-11-28T22:01:12.774Z,20.92
2022-11-28T22:03:40.937Z,20.90
2022-11-28T22:06:17.220Z,19.17
2022-11-28T22:08:44.712Z,19.17
2022-11-28T22:11:13.310Z,18.98
2022-11-28T22:13:50.945Z,21.13
2022-11-28T22:16:26.838Z,21.45
2022-11-28T22:18:55.247Z,25.58
2022-11-28T22:21:50.554Z,23.10
2022-11-28T22:24:09.261Z,23.90
2022-11-28T22:26:36.283Z,24.30
2022-11-28T22:29:04.180Z,20.27
2022-11-28T22:31:31.165Z,23.27
2022-11-28T22:33:57.785Z,27.27
2022-11-28T22:36:24.803Z,23.88
2022-11-28T22:38:55.957Z,23.83
2022-11-28T22:41:28.387Z,24.67
2022-11-28T22:44:00.329Z,24.05
2022-11-28T22:46:27.357Z,24.10
2022-11-28T22:48:53.941Z,21.90
2022-11-28T22:51:25.179Z,24.98
2022-11-28T22:53:56.849Z,23.52
2022-11-28T22:56:23.585Z,22.27
2022-11-28T22:58:50.284Z,19.20
2022-11-28T23:01:25.851Z,22.02
2022-11-28T23:03:54.225Z,23.40
2022-11-28T23:06:23.549Z,21.77
2022-11-28T23:08:50.575Z,21.38
2022-11-28T23:11:25.537Z,21.67
2022-11-28T23:13:52.734Z,23.88
2022-11-28T23:16:21.296Z,20.30
2022-11-28T23:18:49.527Z,19.40
2022-11-28T23:21:17.485Z,21.17
2022-11-28T23:23:45.804Z,19.05
2022-11-28T23:26:18.544Z,19.70
2022-11-28T23:28:45.394Z,19.92
2022-11-28T23:31:23.625Z,21.55
2022-11-28T23:33:50.910Z,23.20
2022-11-28T23:36:29.274Z,19.83
2022-11-28T23:38:59.002Z,20.90
2022-11-28T23:41:26.914Z,21.30
2022-11-28T23:43:53.909Z,24.42
2022-11-28T23:46:22.397Z,24.90
2022-11-28T23:48:49.506Z,25.52
2022-11-28T23:51:18.141Z,30.65
2022-11-28T23:53:45.101Z,28.38
2022-11-28T23:56:18.209Z,30.98
2022-11-28T23:58:45.026Z,31.45
